sensor_id;sensor_type;location;lat;lon;timestamp;temperature;humidity
69204;DHT22;56317;27.658;85.326;2022-09-09T00:01:00;20.10;99.90
69204;DHT22;56317;27.658;85.326;2022-09-09T00:09:28;19.90;99.90
69204;DHT22;56317;27.658;85.326;2022-09-09T00:15:25;19.80;99.90
69204;DHT22;56317;27.658;85.326;2022-09-09T00:23:33;19.80;99.90
69204;DHT22;56317;27.658;85.326;2022-09-09T00:31:28;19.80;99.90
69204;DHT22;56317;27.658;85.326;2022-09-09T00:34:39;19.90;99.90
69204;DHT22;56317;27.658;85.326;2022-09-09T00:36:50;19.90;99.90
69204;DHT22;56317;27.658;85.326;2022-09-09T00:39:27;20.00;99.90
69204;DHT22;56317;27.658;85.326;2022-09-09T00:52:59;20.60;99.90
69204;DHT22;56317;27.658;85.326;2022-09-09T00:58:17;20.90;99.90
69204;DHT22;56317;27.658;85.326;2022-09-09T01:00:52;21.10;99.90
69204;DHT22;56317;27.658;85.326;2022-09-09T01:03:47;21.20;99.90
69204;DHT22;56317;27.658;85.326;2022-09-09T01:09:11;21.40;99.90
69204;DHT22;56317;27.658;85.326;2022-09-09T01:25:27;22.00;99.90
69204;DHT22;56317;27.658;85.326;2022-09-09T01:28:03;22.10;99.90
69204;DHT22;56317;27.658;85.326;2022-09-09T01:30:33;22.20;99.90
69204;DHT22;56317;27.658;85.326;2022-09-09T01:33:00;22.40;99.90
69204;DHT22;56317;27.658;85.326;2022-09-09T01:35:46;22.70;99.90
69204;DHT22;56317;27.658;85.326;2022-09-09T01:38:15;23.10;99.90
69204;DHT22;56317;27.658;85.326;2022-09-09T01:40:42;23.60;99.90
69204;DHT22;56317;27.658;85.326;2022-09-09T01:43:10;23.90;99.90
69204;DHT22;56317;27.658;85.326;2022-09-09T01:45:39;24.40;99.90
69204;DHT22;56317;27.658;85.326;2022-09-09T01:48:08;24.80;99.90
69204;DHT22;56317;27.658;85.326;2022-09-09T01:50:35;25.30;99.90
69204;DHT22;56317;27.658;85.326;2022-09-09T01:53:03;25.70;99.90
69204;DHT22;56317;27.658;85.326;2022-09-09T01:55:41;26.00;99.90
69204;DHT22;56317;27.658;85.326;2022-09-09T02:01:16;26.50;99.90
69204;DHT22;56317;27.658;85.326;2022-09-09T02:03:49;26.60;99.90
69204;DHT22;56317;27.658;85.326;2022-09-09T02:06:38;27.00;99.90
69204;DHT22;56317;27.658;85.326;2022-09-09T02:09:09;27.40;99.90
69204;DHT22;56317;27.658;85.326;2022-09-09T02:11:38;27.50;99.90
69204;DHT22;56317;27.658;85.326;2022-09-09T02:14:16;27.40;99.90
69204;DHT22;56317;27.658;85.326;2022-09-09T02:16:59;27.40;99.90
69204;DHT22;56317;27.658;85.326;2022-09-09T02:19:42;27.60;99.90
69204;DHT22;56317;27.658;85.326;2022-09-09T02:22:10;27.90;99.90
69204;DHT22;56317;27.658;85.326;2022-09-09T02:24:41;28.20;99.40
69204;DHT22;56317;27.658;85.326;2022-09-09T02:27:09;28.30;99.20
69204;DHT22;56317;27.658;85.326;2022-09-09T02:29:40;28.30;99.50
69204;DHT22;56317;27.658;85.326;2022-09-09T02:32:12;28.40;99.30
69204;DHT22;56317;27.658;85.326;2022-09-09T02:34:44;28.60;99.70
69204;DHT22;56317;27.658;85.326;2022-09-09T02:37:11;28.70;98.30
69204;DHT22;56317;27.658;85.326;2022-09-09T02:39:39;28.70;97.20
69204;DHT22;56317;27.658;85.326;2022-09-09T02:42:06;28.70;97.20
69204;DHT22;56317;27.658;85.326;2022-09-09T02:44:35;28.70;96.90
69204;DHT22;56317;27.658;85.326;2022-09-09T02:50:13;28.70;96.80
69204;DHT22;56317;27.658;85.326;2022-09-09T02:55:20;29.10;96.10
69204;DHT22;56317;27.658;85.326;2022-09-09T02:57:51;29.20;94.90
69204;DHT22;56317;27.658;85.326;2022-09-09T03:00:28;29.20;94.60
69204;DHT22;56317;27.658;85.326;2022-09-09T03:02:55;29.30;95.10
69204;DHT22;56317;27.658;85.326;2022-09-09T03:05:23;29.20;94.70
69204;DHT22;56317;27.658;85.326;2022-09-09T03:07:50;29.20;94.20
69204;DHT22;56317;27.658;85.326;2022-09-09T03:10:17;29.00;95.10
69204;DHT22;56317;27.658;85.326;2022-09-09T03:12:44;29.00;94.80
69204;DHT22;56317;27.658;85.326;2022-09-09T03:15:12;29.00;94.20
69204;DHT22;56317;27.658;85.326;2022-09-09T03:17:40;29.00;93.50
69204;DHT22;56317;27.658;85.326;2022-09-09T03:20:07;29.00;93.20
69204;DHT22;56317;27.658;85.326;2022-09-09T03:22:35;29.20;92.60
69204;DHT22;56317;27.658;85.326;2022-09-09T03:25:02;29.40;94.00
69204;DHT22;56317;27.658;85.326;2022-09-09T03:27:30;29.60;93.00
69204;DHT22;56317;27.658;85.326;2022-09-09T03:29:57;29.70;92.80
69204;DHT22;56317;27.658;85.326;2022-09-09T03:32:24;29.80;92.20
69204;DHT22;56317;27.658;85.326;2022-09-09T03:34:53;30.00;91.70
69204;DHT22;56317;27.658;85.326;2022-09-09T03:37:20;30.20;90.50
69204;DHT22;56317;27.658;85.326;2022-09-09T03:39:49;30.40;89.90
69204;DHT22;56317;27.658;85.326;2022-09-09T03:42:16;30.60;90.10
69204;DHT22;56317;27.658;85.326;2022-09-09T03:44:47;30.80;88.20
69204;DHT22;56317;27.658;85.326;2022-09-09T03:47:21;31.00;86.80
69204;DHT22;56317;27.658;85.326;2022-09-09T03:49:48;31.10;87.10
69204;DHT22;56317;27.658;85.326;2022-09-09T03:52:16;31.20;87.70
69204;DHT22;56317;27.658;85.326;2022-09-09T03:54:43;31.40;86.80
69204;DHT22;56317;27.658;85.326;2022-09-09T03:57:11;31.40;87.10
69204;DHT22;56317;27.658;85.326;2022-09-09T03:59:40;31.40;86.20
69204;DHT22;56317;27.658;85.326;2022-09-09T04:02:07;31.30;84.80
69204;DHT22;56317;27.658;85.326;2022-09-09T04:04:35;31.20;84.80
69204;DHT22;56317;27.658;85.326;2022-09-09T04:07:02;31.20;84.70
69204;DHT22;56317;27.658;85.326;2022-09-09T04:09:32;31.40;83.20
69204;DHT22;56317;27.658;85.326;2022-09-09T04:12:00;31.60;82.60
69204;DHT22;56317;27.658;85.326;2022-09-09T04:14:27;31.80;82.40
69204;DHT22;56317;27.658;85.326;2022-09-09T04:16:55;32.30;80.50
69204;DHT22;56317;27.658;85.326;2022-09-09T04:19:23;32.70;78.20
69204;DHT22;56317;27.658;85.326;2022-09-09T04:21:51;33.10;76.10
69204;DHT22;56317;27.658;85.326;2022-09-09T04:24:18;33.30;75.00
69204;DHT22;56317;27.658;85.326;2022-09-09T04:26:45;33.40;75.00
69204;DHT22;56317;27.658;85.326;2022-09-09T04:29:13;33.40;74.30
69204;DHT22;56317;27.658;85.326;2022-09-09T04:31:40;33.30;74.40
69204;DHT22;56317;27.658;85.326;2022-09-09T04:34:09;33.30;73.90
69204;DHT22;56317;27.658;85.326;2022-09-09T04:36:36;33.20;73.00
69204;DHT22;56317;27.658;85.326;2022-09-09T04:39:06;33.10;74.60
69204;DHT22;56317;27.658;85.326;2022-09-09T04:41:34;32.90;75.90
69204;DHT22;56317;27.658;85.326;2022-09-09T04:44:02;32.50;76.30
69204;DHT22;56317;27.658;85.326;2022-09-09T04:46:30;32.20;77.80
69204;DHT22;56317;27.658;85.326;2022-09-09T04:48:57;32.00;76.00
69204;DHT22;56317;27.658;85.326;2022-09-09T04:51:24;31.70;78.10
69204;DHT22;56317;27.658;85.326;2022-09-09T04:53:51;31.30;79.50
69204;DHT22;56317;27.658;85.326;2022-09-09T04:56:20;31.10;79.30
69204;DHT22;56317;27.658;85.326;2022-09-09T04:58:47;30.90;79.90
69204;DHT22;56317;27.658;85.326;2022-09-09T05:01:21;30.40;81.60
69204;DHT22;56317;27.658;85.326;2022-09-09T05:03:50;30.00;83.30
69204;DHT22;56317;27.658;85.326;2022-09-09T05:06:21;29.60;82.50
69204;DHT22;56317;27.658;85.326;2022-09-09T05:08:48;29.20;83.50
69204;DHT22;56317;27.658;85.326;2022-09-09T05:13:43;28.70;84.50
69204;DHT22;56317;27.658;85.326;2022-09-09T05:16:11;28.20;85.90
69204;DHT22;56317;27.658;85.326;2022-09-09T05:18:40;27.80;88.20
69204;DHT22;56317;27.658;85.326;2022-09-09T05:21:08;27.40;88.90
69204;DHT22;56317;27.658;85.326;2022-09-09T05:23:36;26.70;90.60
69204;DHT22;56317;27.658;85.326;2022-09-09T05:26:04;26.00;91.20
69204;DHT22;56317;27.658;85.326;2022-09-09T05:28:34;25.50;92.80
69204;DHT22;56317;27.658;85.326;2022-09-09T05:31:06;25.20;93.80
69204;DHT22;56317;27.658;85.326;2022-09-09T05:33:41;24.80;94.40
69204;DHT22;56317;27.658;85.326;2022-09-09T05:36:14;24.40;95.10
69204;DHT22;56317;27.658;85.326;2022-09-09T05:38:42;24.20;96.50
69204;DHT22;56317;27.658;85.326;2022-09-09T05:41:10;24.00;98.30
69204;DHT22;56317;27.658;85.326;2022-09-09T05:43:38;23.70;99.60
69204;DHT22;56317;27.658;85.326;2022-09-09T05:46:12;23.50;99.80
69204;DHT22;56317;27.658;85.326;2022-09-09T05:48:41;23.10;99.50
69204;DHT22;56317;27.658;85.326;2022-09-09T05:51:10;22.90;99.90
69204;DHT22;56317;27.658;85.326;2022-09-09T05:53:44;22.50;99.90
69204;DHT22;56317;27.658;85.326;2022-09-09T05:56:15;22.30;99.90
69204;DHT22;56317;27.658;85.326;2022-09-09T05:58:46;22.10;99.90
69204;DHT22;56317;27.658;85.326;2022-09-09T06:01:25;21.80;99.90
69204;DHT22;56317;27.658;85.326;2022-09-09T06:03:55;21.60;99.90
69204;DHT22;56317;27.658;85.326;2022-09-09T06:06:33;21.50;99.90
69204;DHT22;56317;27.658;85.326;2022-09-09T06:09:07;21.40;99.90
69204;DHT22;56317;27.658;85.326;2022-09-09T06:11:38;21.40;99.90
69204;DHT22;56317;27.658;85.326;2022-09-09T06:14:06;21.50;99.90
69204;DHT22;56317;27.658;85.326;2022-09-09T06:16:35;21.60;99.90
69204;DHT22;56317;27.658;85.326;2022-09-09T06:19:04;21.70;99.90
69204;DHT22;56317;27.658;85.326;2022-09-09T06:21:33;21.80;99.90
69204;DHT22;56317;27.658;85.326;2022-09-09T06:24:04;21.80;99.90
69204;DHT22;56317;27.658;85.326;2022-09-09T06:26:33;21.90;99.90
69204;DHT22;56317;27.658;85.326;2022-09-09T06:29:02;22.00;99.90
69204;DHT22;56317;27.658;85.326;2022-09-09T06:31:32;22.00;99.90
69204;DHT22;56317;27.658;85.326;2022-09-09T06:34:00;22.00;99.90
69204;DHT22;56317;27.658;85.326;2022-09-09T06:36:30;22.10;99.90
69204;DHT22;56317;27.658;85.326;2022-09-09T06:38:58;22.20;99.90
69204;DHT22;56317;27.658;85.326;2022-09-09T06:41:28;22.20;99.90
69204;DHT22;56317;27.658;85.326;2022-09-09T06:43:56;22.40;99.90
69204;DHT22;56317;27.658;85.326;2022-09-09T06:46:28;22.50;99.90
69204;DHT22;56317;27.658;85.326;2022-09-09T06:48:57;22.80;99.90
69204;DHT22;56317;27.658;85.326;2022-09-09T06:51:27;23.10;99.90
69204;DHT22;56317;27.658;85.326;2022-09-09T06:53:57;23.30;99.90
69204;DHT22;56317;27.658;85.326;2022-09-09T06:56:35;23.50;99.90
69204;DHT22;56317;27.658;85.326;2022-09-09T06:59:06;23.80;99.90
69204;DHT22;56317;27.658;85.326;2022-09-09T07:01:37;23.90;99.90
69204;DHT22;56317;27.658;85.326;2022-09-09T07:04:07;24.00;99.90
69204;DHT22;56317;27.658;85.326;2022-09-09T07:06:40;24.10;99.90
69204;DHT22;56317;27.658;85.326;2022-09-09T07:09:11;24.30;99.90
69204;DHT22;56317;27.658;85.326;2022-09-09T07:11:46;24.40;99.90
69204;DHT22;56317;27.658;85.326;2022-09-09T07:14:15;24.50;99.90
69204;DHT22;56317;27.658;85.326;2022-09-09T07:16:43;24.80;99.90
69204;DHT22;56317;27.658;85.326;2022-09-09T07:19:11;25.00;99.90
69204;DHT22;56317;27.658;85.326;2022-09-09T07:21:39;25.30;99.90
69204;DHT22;56317;27.658;85.326;2022-09-09T07:24:09;25.70;99.90
69204;DHT22;56317;27.658;85.326;2022-09-09T07:26:38;26.20;99.90
69204;DHT22;56317;27.658;85.326;2022-09-09T07:29:06;26.60;99.90
69204;DHT22;56317;27.658;85.326;2022-09-09T07:31:36;26.90;99.90
69204;DHT22;56317;27.658;85.326;2022-09-09T07:34:04;27.30;99.90
69204;DHT22;56317;27.658;85.326;2022-09-09T07:36:34;27.80;98.90
69204;DHT22;56317;27.658;85.326;2022-09-09T07:39:04;28.50;97.70
69204;DHT22;56317;27.658;85.326;2022-09-09T07:41:36;29.40;96.10
69204;DHT22;56317;27.658;85.326;2022-09-09T07:44:09;31.40;95.20
69204;DHT22;56317;27.658;85.326;2022-09-09T07:46:37;34.00;90.40
69204;DHT22;56317;27.658;85.326;2022-09-09T07:49:08;35.80;80.90
69204;DHT22;56317;27.658;85.326;2022-09-09T07:51:38;37.40;73.50
69204;DHT22;56317;27.658;85.326;2022-09-09T07:54:10;39.10;68.90
69204;DHT22;56317;27.658;85.326;2022-09-09T07:56:38;42.20;59.00
69204;DHT22;56317;27.658;85.326;2022-09-09T07:59:09;43.50;55.80
69204;DHT22;56317;27.658;85.326;2022-09-09T08:01:42;44.60;50.60
69204;DHT22;56317;27.658;85.326;2022-09-09T08:04:19;44.60;48.60
69204;DHT22;56317;27.658;85.326;2022-09-09T08:06:50;43.30;48.60
69204;DHT22;56317;27.658;85.326;2022-09-09T08:09:19;41.70;49.30
69204;DHT22;56317;27.658;85.326;2022-09-09T08:11:47;39.90;50.70
69204;DHT22;56317;27.658;85.326;2022-09-09T08:14:15;38.30;52.20
69204;DHT22;56317;27.658;85.326;2022-09-09T08:16:45;36.90;55.80
69204;DHT22;56317;27.658;85.326;2022-09-09T08:19:13;36.00;56.70
69204;DHT22;56317;27.658;85.326;2022-09-09T08:21:44;35.40;58.20
69204;DHT22;56317;27.658;85.326;2022-09-09T08:24:12;35.60;58.80
69204;DHT22;56317;27.658;85.326;2022-09-09T08:26:45;35.70;59.00
69204;DHT22;56317;27.658;85.326;2022-09-09T08:29:16;36.70;57.30
69204;DHT22;56317;27.658;85.326;2022-09-09T08:31:55;36.80;56.00
69204;DHT22;56317;27.658;85.326;2022-09-09T08:34:25;36.60;57.80
69204;DHT22;56317;27.658;85.326;2022-09-09T08:36:54;36.60;56.80
69204;DHT22;56317;27.658;85.326;2022-09-09T08:39:22;37.80;56.90
69204;DHT22;56317;27.658;85.326;2022-09-09T08:42:13;40.30;54.40
69204;DHT22;56317;27.658;85.326;2022-09-09T08:45:12;43.00;50.60
69204;DHT22;56317;27.658;85.326;2022-09-09T08:48:14;44.70;47.40
69204;DHT22;56317;27.658;85.326;2022-09-09T08:50:54;46.30;45.10
69204;DHT22;56317;27.658;85.326;2022-09-09T08:53:30;48.20;42.40
69204;DHT22;56317;27.658;85.326;2022-09-09T08:56:09;49.40;42.40
69204;DHT22;56317;27.658;85.326;2022-09-09T08:58:48;51.30;41.10
69204;DHT22;56317;27.658;85.326;2022-09-09T09:10:04;54.60;35.70
69204;DHT22;56317;27.658;85.326;2022-09-09T09:12:43;55.80;35.30
69204;DHT22;56317;27.658;85.326;2022-09-09T09:15:36;56.30;33.30
69204;DHT22;56317;27.658;85.326;2022-09-09T09:18:05;56.70;34.10
69204;DHT22;56317;27.658;85.326;2022-09-09T09:21:02;56.80;33.30
69204;DHT22;56317;27.658;85.326;2022-09-09T09:23:40;56.50;33.30
69204;DHT22;56317;27.658;85.326;2022-09-09T09:26:10;56.50;33.10
69204;DHT22;56317;27.658;85.326;2022-09-09T09:28:40;56.80;33.60
69204;DHT22;56317;27.658;85.326;2022-09-09T09:31:10;56.80;31.80
69204;DHT22;56317;27.658;85.326;2022-09-09T09:33:52;56.40;32.60
69204;DHT22;56317;27.658;85.326;2022-09-09T09:36:22;55.80;32.10
69204;DHT22;56317;27.658;85.326;2022-09-09T09:38:59;55.70;32.10
69204;DHT22;56317;27.658;85.326;2022-09-09T09:41:42;55.70;32.30
69204;DHT22;56317;27.658;85.326;2022-09-09T09:44:29;55.70;31.90
69204;DHT22;56317;27.658;85.326;2022-09-09T09:47:14;55.30;31.90
69204;DHT22;56317;27.658;85.326;2022-09-09T09:49:59;55.50;31.50
69204;DHT22;56317;27.658;85.326;2022-09-09T09:52:32;55.80;31.90
69204;DHT22;56317;27.658;85.326;2022-09-09T09:55:04;56.00;31.50
69204;DHT22;56317;27.658;85.326;2022-09-09T09:57:34;56.50;31.60
69204;DHT22;56317;27.658;85.326;2022-09-09T10:00:19;56.70;30.60
69204;DHT22;56317;27.658;85.326;2022-09-09T10:02:48;56.30;30.00
69204;DHT22;56317;27.658;85.326;2022-09-09T10:05:28;56.50;30.40
69204;DHT22;56317;27.658;85.326;2022-09-09T10:08:11;56.50;31.00
69204;DHT22;56317;27.658;85.326;2022-09-09T10:17:01;56.70;31.10
69204;DHT22;56317;27.658;85.326;2022-09-09T10:19:36;56.90;30.40
69204;DHT22;56317;27.658;85.326;2022-09-09T10:22:28;56.80;30.30
69204;DHT22;56317;27.658;85.326;2022-09-09T10:25:36;56.30;30.40
69204;DHT22;56317;27.658;85.326;2022-09-09T10:31:17;56.10;30.10
69204;DHT22;56317;27.658;85.326;2022-09-09T10:36:49;52.70;30.60
69204;DHT22;56317;27.658;85.326;2022-09-09T10:42:20;45.50;35.60
69204;DHT22;56317;27.658;85.326;2022-09-09T10:50:33;37.60;46.30
69204;DHT22;56317;27.658;85.326;2022-09-09T10:53:14;36.30;48.20
69204;DHT22;56317;27.658;85.326;2022-09-09T10:55:51;35.10;49.70
69204;DHT22;56317;27.658;85.326;2022-09-09T11:01:37;32.80;53.40
69204;DHT22;56317;27.658;85.326;2022-09-09T11:04:29;31.90;55.80
69204;DHT22;56317;27.658;85.326;2022-09-09T11:07:02;31.00;56.90
69204;DHT22;56317;27.658;85.326;2022-09-09T11:09:38;30.30;59.60
69204;DHT22;56317;27.658;85.326;2022-09-09T11:12:13;29.80;61.70
69204;DHT22;56317;27.658;85.326;2022-09-09T11:14:43;29.30;63.30
69204;DHT22;56317;27.658;85.326;2022-09-09T11:17:18;28.80;64.90
69204;DHT22;56317;27.658;85.326;2022-09-09T11:19:47;28.40;65.40
69204;DHT22;56317;27.658;85.326;2022-09-09T11:22:37;28.20;68.20
69204;DHT22;56317;27.658;85.326;2022-09-09T11:39:22;26.20;77.20
69204;DHT22;56317;27.658;85.326;2022-09-09T11:41:53;25.90;77.80
69204;DHT22;56317;27.658;85.326;2022-09-09T11:44:29;25.70;79.20
69204;DHT22;56317;27.658;85.326;2022-09-09T11:46:56;25.60;79.40
69204;DHT22;56317;27.658;85.326;2022-09-09T11:49:40;25.40;81.00
69204;DHT22;56317;27.658;85.326;2022-09-09T11:52:23;25.30;81.90
69204;DHT22;56317;27.658;85.326;2022-09-09T11:54:54;25.20;81.50
69204;DHT22;56317;27.658;85.326;2022-09-09T11:57:32;25.10;83.00
69204;DHT22;56317;27.658;85.326;2022-09-09T12:00:02;25.00;83.50
69204;DHT22;56317;27.658;85.326;2022-09-09T12:02:30;24.90;85.50
69204;DHT22;56317;27.658;85.326;2022-09-09T12:05:07;24.80;85.60
69204;DHT22;56317;27.658;85.326;2022-09-09T12:08:08;24.70;87.20
69204;DHT22;56317;27.658;85.326;2022-09-09T12:10:34;24.60;87.40
69204;DHT22;56317;27.658;85.326;2022-09-09T12:13:28;24.50;89.00
69204;DHT22;56317;27.658;85.326;2022-09-09T12:15:59;24.30;89.60
69204;DHT22;56317;27.658;85.326;2022-09-09T12:18:37;24.20;90.10
69204;DHT22;56317;27.658;85.326;2022-09-09T12:21:29;24.00;90.10
69204;DHT22;56317;27.658;85.326;2022-09-09T12:24:10;23.90;90.10
69204;DHT22;56317;27.658;85.326;2022-09-09T12:29:30;23.70;91.00
69204;DHT22;56317;27.658;85.326;2022-09-09T12:32:19;23.60;91.60
69204;DHT22;56317;27.658;85.326;2022-09-09T12:35:02;23.50;91.60
69204;DHT22;56317;27.658;85.326;2022-09-09T12:37:41;23.40;92.50
69204;DHT22;56317;27.658;85.326;2022-09-09T12:40:29;23.40;93.00
69204;DHT22;56317;27.658;85.326;2022-09-09T12:42:58;23.20;93.10
69204;DHT22;56317;27.658;85.326;2022-09-09T12:45:30;23.20;93.60
69204;DHT22;56317;27.658;85.326;2022-09-09T12:48:04;23.10;93.90
69204;DHT22;56317;27.658;85.326;2022-09-09T12:50:52;23.00;94.80
69204;DHT22;56317;27.658;85.326;2022-09-09T12:53:26;23.00;94.60
69204;DHT22;56317;27.658;85.326;2022-09-09T12:56:06;22.80;95.20
69204;DHT22;56317;27.658;85.326;2022-09-09T12:58:37;22.70;96.10
69204;DHT22;56317;27.658;85.326;2022-09-09T13:01:17;22.60;96.40
69204;DHT22;56317;27.658;85.326;2022-09-09T13:03:45;22.50;97.20
69204;DHT22;56317;27.658;85.326;2022-09-09T13:06:27;22.40;97.40
69204;DHT22;56317;27.658;85.326;2022-09-09T13:08:57;22.30;97.80
69204;DHT22;56317;27.658;85.326;2022-09-09T13:11:54;22.20;99.00
69204;DHT22;56317;27.658;85.326;2022-09-09T13:14:34;22.10;98.40
69204;DHT22;56317;27.658;85.326;2022-09-09T13:17:05;22.10;99.20
69204;DHT22;56317;27.658;85.326;2022-09-09T13:19:36;22.00;99.90
69204;DHT22;56317;27.658;85.326;2022-09-09T13:27:40;21.90;99.90
69204;DHT22;56317;27.658;85.326;2022-09-09T13:30:36;21.90;99.90
69204;DHT22;56317;27.658;85.326;2022-09-09T13:35:57;21.80;99.90
69204;DHT22;56317;27.658;85.326;2022-09-09T13:38:26;21.80;99.90
69204;DHT22;56317;27.658;85.326;2022-09-09T13:40:59;21.70;99.90
69204;DHT22;56317;27.658;85.326;2022-09-09T13:43:46;21.70;99.90
69204;DHT22;56317;27.658;85.326;2022-09-09T13:46:41;21.60;99.90
69204;DHT22;56317;27.658;85.326;2022-09-09T13:54:10;21.60;99.90
69204;DHT22;56317;27.658;85.326;2022-09-09T13:56:39;21.60;99.90
69204;DHT22;56317;27.658;85.326;2022-09-09T13:59:19;21.70;99.90
69204;DHT22;56317;27.658;85.326;2022-09-09T14:01:47;21.70;99.90
69204;DHT22;56317;27.658;85.326;2022-09-09T14:04:15;21.70;99.90
69204;DHT22;56317;27.658;85.326;2022-09-09T14:06:43;21.80;99.90
69204;DHT22;56317;27.658;85.326;2022-09-09T14:09:19;21.80;99.90
69204;DHT22;56317;27.658;85.326;2022-09-09T14:11:46;21.80;99.90
69204;DHT22;56317;27.658;85.326;2022-09-09T14:14:13;21.80;99.90
69204;DHT22;56317;27.658;85.326;2022-09-09T14:16:41;21.80;99.90
69204;DHT22;56317;27.658;85.326;2022-09-09T14:19:09;21.80;99.90
69204;DHT22;56317;27.658;85.326;2022-09-09T14:21:36;21.90;99.90
69204;DHT22;56317;27.658;85.326;2022-09-09T14:24:03;21.90;99.90
69204;DHT22;56317;27.658;85.326;2022-09-09T14:26:30;21.90;99.90
69204;DHT22;56317;27.658;85.326;2022-09-09T14:28:58;22.00;99.90
69204;DHT22;56317;27.658;85.326;2022-09-09T14:31:27;22.00;99.90
69204;DHT22;56317;27.658;85.326;2022-09-09T14:33:54;22.00;99.90
69204;DHT22;56317;27.658;85.326;2022-09-09T14:36:21;22.00;99.90
69204;DHT22;56317;27.658;85.326;2022-09-09T14:38:49;22.00;99.90
69204;DHT22;56317;27.658;85.326;2022-09-09T14:41:17;22.00;99.90
69204;DHT22;56317;27.658;85.326;2022-09-09T14:43:46;22.00;99.90
69204;DHT22;56317;27.658;85.326;2022-09-09T14:46:16;22.00;99.90
69204;DHT22;56317;27.658;85.326;2022-09-09T14:48:43;22.00;99.90
69204;DHT22;56317;27.658;85.326;2022-09-09T14:51:20;22.10;99.90
69204;DHT22;56317;27.658;85.326;2022-09-09T14:53:51;22.10;99.90
69204;DHT22;56317;27.658;85.326;2022-09-09T14:56:26;22.10;99.90
69204;DHT22;56317;27.658;85.326;2022-09-09T14:58:54;22.10;99.90
69204;DHT22;56317;27.658;85.326;2022-09-09T15:01:25;22.10;99.90
69204;DHT22;56317;27.658;85.326;2022-09-09T15:03:58;22.20;99.90
69204;DHT22;56317;27.658;85.326;2022-09-09T15:06:28;22.10;99.90
69204;DHT22;56317;27.658;85.326;2022-09-09T15:08:56;22.10;99.90
69204;DHT22;56317;27.658;85.326;2022-09-09T15:11:29;21.90;99.90
69204;DHT22;56317;27.658;85.326;2022-09-09T15:13:57;21.80;99.90
69204;DHT22;56317;27.658;85.326;2022-09-09T15:16:26;21.70;99.90
69204;DHT22;56317;27.658;85.326;2022-09-09T15:18:56;21.60;99.90
69204;DHT22;56317;27.658;85.326;2022-09-09T15:21:26;21.50;99.90
69204;DHT22;56317;27.658;85.326;2022-09-09T15:23:54;21.50;99.90
69204;DHT22;56317;27.658;85.326;2022-09-09T15:26:21;21.40;99.90
69204;DHT22;56317;27.658;85.326;2022-09-09T15:28:49;21.30;99.90
69204;DHT22;56317;27.658;85.326;2022-09-09T15:31:26;21.20;99.90
69204;DHT22;56317;27.658;85.326;2022-09-09T15:33:59;21.00;99.90
69204;DHT22;56317;27.658;85.326;2022-09-09T15:36:34;20.90;99.90
69204;DHT22;56317;27.658;85.326;2022-09-09T15:39:04;20.80;99.90
69204;DHT22;56317;27.658;85.326;2022-09-09T15:41:31;20.80;99.90
69204;DHT22;56317;27.658;85.326;2022-09-09T15:43:59;20.80;99.90
69204;DHT22;56317;27.658;85.326;2022-09-09T15:47:04;20.70;99.90
69204;DHT22;56317;27.658;85.326;2022-09-09T15:49:26;20.70;99.90
69204;DHT22;56317;27.658;85.326;2022-09-09T15:51:57;20.70;99.90
69204;DHT22;56317;27.658;85.326;2022-09-09T15:54:26;20.70;99.90
69204;DHT22;56317;27.658;85.326;2022-09-09T15:56:56;20.70;99.90
69204;DHT22;56317;27.658;85.326;2022-09-09T15:59:24;20.70;99.90
69204;DHT22;56317;27.658;85.326;2022-09-09T16:01:52;20.70;99.90
69204;DHT22;56317;27.658;85.326;2022-09-09T16:04:20;20.60;99.90
69204;DHT22;56317;27.658;85.326;2022-09-09T16:07:01;20.60;99.90
69204;DHT22;56317;27.658;85.326;2022-09-09T16:09:28;20.60;99.90
69204;DHT22;56317;27.658;85.326;2022-09-09T16:11:57;20.60;99.90
69204;DHT22;56317;27.658;85.326;2022-09-09T16:14:25;20.50;99.90
69204;DHT22;56317;27.658;85.326;2022-09-09T16:16:52;20.50;99.90
69204;DHT22;56317;27.658;85.326;2022-09-09T16:19:19;20.50;99.90
69204;DHT22;56317;27.658;85.326;2022-09-09T16:21:49;20.50;99.90
69204;DHT22;56317;27.658;85.326;2022-09-09T16:24:18;20.50;99.90
69204;DHT22;56317;27.658;85.326;2022-09-09T16:26:48;20.50;99.90
69204;DHT22;56317;27.658;85.326;2022-09-09T16:29:17;20.50;99.90
69204;DHT22;56317;27.658;85.326;2022-09-09T16:31:45;20.50;99.90
69204;DHT22;56317;27.658;85.326;2022-09-09T16:34:13;20.50;99.90
69204;DHT22;56317;27.658;85.326;2022-09-09T16:36:43;20.60;99.90
69204;DHT22;56317;27.658;85.326;2022-09-09T16:39:18;20.50;99.90
69204;DHT22;56317;27.658;85.326;2022-09-09T16:41:47;20.60;99.90
69204;DHT22;56317;27.658;85.326;2022-09-09T16:44:16;20.60;99.90
69204;DHT22;56317;27.658;85.326;2022-09-09T16:46:45;20.60;99.90
69204;DHT22;56317;27.658;85.326;2022-09-09T16:49:15;20.60;99.90
69204;DHT22;56317;27.658;85.326;2022-09-09T16:51:51;20.60;99.90
69204;DHT22;56317;27.658;85.326;2022-09-09T16:54:21;20.60;99.90
69204;DHT22;56317;27.658;85.326;2022-09-09T16:56:49;20.60;99.90
69204;DHT22;56317;27.658;85.326;2022-09-09T16:59:19;20.60;99.90
69204;DHT22;56317;27.658;85.326;2022-09-09T17:01:49;20.60;99.90
69204;DHT22;56317;27.658;85.326;2022-09-09T17:04:26;20.50;99.90
69204;DHT22;56317;27.658;85.326;2022-09-09T17:06:55;20.50;99.90
69204;DHT22;56317;27.658;85.326;2022-09-09T17:09:24;20.40;99.90
69204;DHT22;56317;27.658;85.326;2022-09-09T17:11:54;20.40;99.90
69204;DHT22;56317;27.658;85.326;2022-09-09T17:14:22;20.40;99.90
69204;DHT22;56317;27.658;85.326;2022-09-09T17:16:50;20.30;99.90
69204;DHT22;56317;27.658;85.326;2022-09-09T17:19:17;20.30;99.90
69204;DHT22;56317;27.658;85.326;2022-09-09T17:21:44;20.30;99.90
69204;DHT22;56317;27.658;85.326;2022-09-09T17:24:13;20.20;99.90
69204;DHT22;56317;27.658;85.326;2022-09-09T17:26:42;20.20;99.90
69204;DHT22;56317;27.658;85.326;2022-09-09T17:29:09;20.20;99.90
69204;DHT22;56317;27.658;85.326;2022-09-09T17:31:37;20.20;99.90
69204;DHT22;56317;27.658;85.326;2022-09-09T17:34:05;20.20;99.90
69204;DHT22;56317;27.658;85.326;2022-09-09T17:36:34;20.20;99.90
69204;DHT22;56317;27.658;85.326;2022-09-09T17:39:03;20.20;99.90
69204;DHT22;56317;27.658;85.326;2022-09-09T17:41:33;20.30;99.90
69204;DHT22;56317;27.658;85.326;2022-09-09T17:44:01;20.30;99.90
69204;DHT22;56317;27.658;85.326;2022-09-09T17:46:35;20.20;99.90
69204;DHT22;56317;27.658;85.326;2022-09-09T17:49:05;20.20;99.90
69204;DHT22;56317;27.658;85.326;2022-09-09T17:51:34;20.20;99.90